sensor_id;sensor_type;location;lat;lon;timestamp;temperature;humidity
578;DHT22;275;48.492;9.214;2022-10-03T00:01:37;15.40;51.50
578;DHT22;275;48.492;9.214;2022-10-03T00:04:16;15.20;51.80
578;DHT22;275;48.492;9.214;2022-10-03T00:06:56;15.30;51.90
578;DHT22;275;48.492;9.214;2022-10-03T00:09:35;15.40;51.50
578;DHT22;275;48.492;9.214;2022-10-03T00:12:13;15.40;51.50
578;DHT22;275;48.492;9.214;2022-10-03T00:14:51;15.30;51.40
578;DHT22;275;48.492;9.214;2022-10-03T00:17:26;14.90;52.70
578;DHT22;275;48.492;9.214;2022-10-03T00:20:01;14.60;54.30
578;DHT22;275;48.492;9.214;2022-10-03T00:22:38;14.70;54.70
578;DHT22;275;48.492;9.214;2022-10-03T00:25:23;14.90;52.50
578;DHT22;275;48.492;9.214;2022-10-03T00:28:03;15.10;52.60
578;DHT22;275;48.492;9.214;2022-10-03T00:30:53;15.30;51.70
578;DHT22;275;48.492;9.214;2022-10-03T00:33:28;15.30;51.50
578;DHT22;275;48.492;9.214;2022-10-03T00:36:03;15.30;51.40
578;DHT22;275;48.492;9.214;2022-10-03T00:38:58;15.30;51.60
578;DHT22;275;48.492;9.214;2022-10-03T00:41:46;15.50;51.20
578;DHT22;275;48.492;9.214;2022-10-03T00:44:45;15.50;51.30
578;DHT22;275;48.492;9.214;2022-10-03T00:47:46;15.60;51.30
578;DHT22;275;48.492;9.214;2022-10-03T00:50:38;15.40;51.30
578;DHT22;275;48.492;9.214;2022-10-03T00:53:32;15.70;50.70
578;DHT22;275;48.492;9.214;2022-10-03T00:59:13;15.80;50.10
578;DHT22;275;48.492;9.214;2022-10-03T01:01:44;15.80;49.80
578;DHT22;275;48.492;9.214;2022-10-03T01:07:12;15.60;49.80
578;DHT22;275;48.492;9.214;2022-10-03T01:10:05;15.50;50.20
578;DHT22;275;48.492;9.214;2022-10-03T01:12:48;15.50;50.10
578;DHT22;275;48.492;9.214;2022-10-03T01:15:27;14.80;52.50
578;DHT22;275;48.492;9.214;2022-10-03T01:18:13;14.70;53.20
578;DHT22;275;48.492;9.214;2022-10-03T01:20:51;15.10;52.10
578;DHT22;275;48.492;9.214;2022-10-03T01:23:51;15.40;50.90
578;DHT22;275;48.492;9.214;2022-10-03T01:26:40;15.50;50.30
578;DHT22;275;48.492;9.214;2022-10-03T01:29:14;15.60;49.60
578;DHT22;275;48.492;9.214;2022-10-03T01:32:04;15.40;50.70
578;DHT22;275;48.492;9.214;2022-10-03T01:34:37;14.70;52.50
578;DHT22;275;48.492;9.214;2022-10-03T01:37:09;14.40;53.90
578;DHT22;275;48.492;9.214;2022-10-03T01:39:46;14.80;52.60
578;DHT22;275;48.492;9.214;2022-10-03T01:42:19;15.20;51.30
578;DHT22;275;48.492;9.214;2022-10-03T01:45:02;15.50;50.30
578;DHT22;275;48.492;9.214;2022-10-03T01:47:43;15.60;50.60
578;DHT22;275;48.492;9.214;2022-10-03T01:50:20;15.60;49.60
578;DHT22;275;48.492;9.214;2022-10-03T01:52:53;15.90;48.80
578;DHT22;275;48.492;9.214;2022-10-03T01:55:35;15.80;48.50
578;DHT22;275;48.492;9.214;2022-10-03T01:58:06;15.80;48.00
578;DHT22;275;48.492;9.214;2022-10-03T02:00:44;15.80;47.40
578;DHT22;275;48.492;9.214;2022-10-03T02:03:21;15.60;47.90
578;DHT22;275;48.492;9.214;2022-10-03T02:05:54;15.60;47.70
578;DHT22;275;48.492;9.214;2022-10-03T02:08:31;15.40;47.90
578;DHT22;275;48.492;9.214;2022-10-03T02:11:02;15.40;48.00
578;DHT22;275;48.492;9.214;2022-10-03T02:13:39;15.40;47.80
578;DHT22;275;48.492;9.214;2022-10-03T02:16:10;15.30;47.90
578;DHT22;275;48.492;9.214;2022-10-03T02:18:42;15.40;47.90
578;DHT22;275;48.492;9.214;2022-10-03T02:21:14;15.50;47.60
578;DHT22;275;48.492;9.214;2022-10-03T02:23:43;15.40;47.40
578;DHT22;275;48.492;9.214;2022-10-03T02:26:36;15.40;47.60
578;DHT22;275;48.492;9.214;2022-10-03T02:29:46;15.40;47.70
578;DHT22;275;48.492;9.214;2022-10-03T02:33:11;15.40;47.80
578;DHT22;275;48.492;9.214;2022-10-03T02:36:01;15.10;48.30
578;DHT22;275;48.492;9.214;2022-10-03T02:38:52;14.40;50.40
578;DHT22;275;48.492;9.214;2022-10-03T02:41:39;14.10;51.10
578;DHT22;275;48.492;9.214;2022-10-03T02:44:38;13.70;53.20
578;DHT22;275;48.492;9.214;2022-10-03T02:47:31;13.30;54.60
578;DHT22;275;48.492;9.214;2022-10-03T02:50:25;13.30;55.40
578;DHT22;275;48.492;9.214;2022-10-03T02:53:26;13.10;55.80
578;DHT22;275;48.492;9.214;2022-10-03T02:56:34;13.20;55.60
578;DHT22;275;48.492;9.214;2022-10-03T03:02:30;13.20;55.50
578;DHT22;275;48.492;9.214;2022-10-03T03:05:17;13.30;55.50
578;DHT22;275;48.492;9.214;2022-10-03T03:08:19;13.30;55.80
578;DHT22;275;48.492;9.214;2022-10-03T03:11:08;13.70;54.20
578;DHT22;275;48.492;9.214;2022-10-03T03:14:10;14.00;53.10
578;DHT22;275;48.492;9.214;2022-10-03T03:16:54;14.10;52.30
578;DHT22;275;48.492;9.214;2022-10-03T03:22:32;14.30;52.20
578;DHT22;275;48.492;9.214;2022-10-03T03:25:20;14.60;51.10
578;DHT22;275;48.492;9.214;2022-10-03T03:28:01;14.60;50.90
578;DHT22;275;48.492;9.214;2022-10-03T03:30:38;14.60;51.00
578;DHT22;275;48.492;9.214;2022-10-03T03:33:11;14.50;51.60
578;DHT22;275;48.492;9.214;2022-10-03T03:35:56;14.90;50.80
578;DHT22;275;48.492;9.214;2022-10-03T03:38:32;15.00;50.30
578;DHT22;275;48.492;9.214;2022-10-03T03:41:24;14.60;51.60
578;DHT22;275;48.492;9.214;2022-10-03T03:44:11;14.20;53.40
578;DHT22;275;48.492;9.214;2022-10-03T03:46:45;14.10;53.80
578;DHT22;275;48.492;9.214;2022-10-03T03:49:30;14.30;53.40
578;DHT22;275;48.492;9.214;2022-10-03T03:52:19;14.50;52.50
578;DHT22;275;48.492;9.214;2022-10-03T03:55:21;14.60;52.30
578;DHT22;275;48.492;9.214;2022-10-03T03:58:12;15.10;51.30
578;DHT22;275;48.492;9.214;2022-10-03T04:01:17;15.30;50.10
578;DHT22;275;48.492;9.214;2022-10-03T04:03:59;15.70;48.80
578;DHT22;275;48.492;9.214;2022-10-03T04:06:40;15.60;48.60
578;DHT22;275;48.492;9.214;2022-10-03T04:09:45;15.10;49.80
578;DHT22;275;48.492;9.214;2022-10-03T04:12:30;15.20;50.00
578;DHT22;275;48.492;9.214;2022-10-03T04:15:32;15.10;50.10
578;DHT22;275;48.492;9.214;2022-10-03T04:18:16;15.30;50.00
578;DHT22;275;48.492;9.214;2022-10-03T04:21:31;15.40;48.90
578;DHT22;275;48.492;9.214;2022-10-03T04:24:14;15.40;48.60
578;DHT22;275;48.492;9.214;2022-10-03T04:27:02;15.10;49.80
578;DHT22;275;48.492;9.214;2022-10-03T04:29:42;15.00;49.70
578;DHT22;275;48.492;9.214;2022-10-03T04:32:21;14.90;50.40
578;DHT22;275;48.492;9.214;2022-10-03T04:35:08;14.80;50.30
578;DHT22;275;48.492;9.214;2022-10-03T04:37:44;14.80;50.60
578;DHT22;275;48.492;9.214;2022-10-03T04:40:24;14.70;50.60
578;DHT22;275;48.492;9.214;2022-10-03T04:43:02;14.90;50.20
578;DHT22;275;48.492;9.214;2022-10-03T04:45:39;14.90;50.30
578;DHT22;275;48.492;9.214;2022-10-03T04:48:17;15.00;49.90
578;DHT22;275;48.492;9.214;2022-10-03T04:51:07;14.50;51.20
578;DHT22;275;48.492;9.214;2022-10-03T04:53:43;14.70;50.80
578;DHT22;275;48.492;9.214;2022-10-03T04:56:23;15.10;48.90
578;DHT22;275;48.492;9.214;2022-10-03T04:59:01;15.10;48.50
578;DHT22;275;48.492;9.214;2022-10-03T05:01:34;15.20;48.10
578;DHT22;275;48.492;9.214;2022-10-03T05:04:18;14.80;48.60
578;DHT22;275;48.492;9.214;2022-10-03T05:06:57;14.50;49.20
578;DHT22;275;48.492;9.214;2022-10-03T05:09:34;14.40;49.50
578;DHT22;275;48.492;9.214;2022-10-03T05:12:09;14.30;49.50
578;DHT22;275;48.492;9.214;2022-10-03T05:14:48;14.40;49.10
578;DHT22;275;48.492;9.214;2022-10-03T05:17:20;14.10;49.90
578;DHT22;275;48.492;9.214;2022-10-03T05:20:16;14.10;50.10
578;DHT22;275;48.492;9.214;2022-10-03T05:22:54;14.20;50.00
578;DHT22;275;48.492;9.214;2022-10-03T05:25:30;14.20;49.40
578;DHT22;275;48.492;9.214;2022-10-03T05:28:05;14.30;49.00
578;DHT22;275;48.492;9.214;2022-10-03T05:30:41;14.40;48.70
578;DHT22;275;48.492;9.214;2022-10-03T05:33:18;14.40;48.50
578;DHT22;275;48.492;9.214;2022-10-03T05:36:12;14.40;48.40
578;DHT22;275;48.492;9.214;2022-10-03T05:42:13;14.50;48.00
578;DHT22;275;48.492;9.214;2022-10-03T05:44:47;13.50;51.40
578;DHT22;275;48.492;9.214;2022-10-03T05:47:25;13.60;51.50
578;DHT22;275;48.492;9.214;2022-10-03T05:53:50;14.40;48.80
578;DHT22;275;48.492;9.214;2022-10-03T05:56:32;14.00;50.20
578;DHT22;275;48.492;9.214;2022-10-03T05:59:22;14.10;50.00
578;DHT22;275;48.492;9.214;2022-10-03T06:02:22;14.40;49.00
578;DHT22;275;48.492;9.214;2022-10-03T06:05:14;13.90;49.90
578;DHT22;275;48.492;9.214;2022-10-03T06:07:53;13.50;51.40
578;DHT22;275;48.492;9.214;2022-10-03T06:10:42;13.40;52.60
578;DHT22;275;48.492;9.214;2022-10-03T06:13:15;13.20;53.20
578;DHT22;275;48.492;9.214;2022-10-03T06:15:50;13.70;51.80
578;DHT22;275;48.492;9.214;2022-10-03T06:18:38;14.20;49.60
578;DHT22;275;48.492;9.214;2022-10-03T06:21:26;14.50;48.90
578;DHT22;275;48.492;9.214;2022-10-03T06:30:22;14.70;47.40
578;DHT22;275;48.492;9.214;2022-10-03T06:33:46;14.70;47.30
578;DHT22;275;48.492;9.214;2022-10-03T06:36:23;14.70;47.50
578;DHT22;275;48.492;9.214;2022-10-03T06:39:22;14.70;47.40
578;DHT22;275;48.492;9.214;2022-10-03T06:48:12;14.80;48.10
578;DHT22;275;48.492;9.214;2022-10-03T06:50:52;15.10;47.10
578;DHT22;275;48.492;9.214;2022-10-03T06:54:05;15.00;46.50
578;DHT22;275;48.492;9.214;2022-10-03T06:57:02;14.50;48.40
578;DHT22;275;48.492;9.214;2022-10-03T07:00:06;14.50;48.60
578;DHT22;275;48.492;9.214;2022-10-03T07:03:23;13.80;50.70
578;DHT22;275;48.492;9.214;2022-10-03T07:12:32;14.00;49.90
578;DHT22;275;48.492;9.214;2022-10-03T07:15:29;13.30;52.00
578;DHT22;275;48.492;9.214;2022-10-03T07:24:29;13.60;51.70
578;DHT22;275;48.492;9.214;2022-10-03T07:27:18;13.50;52.10
578;DHT22;275;48.492;9.214;2022-10-03T07:30:09;13.70;51.80
578;DHT22;275;48.492;9.214;2022-10-03T07:36:24;13.30;53.30
578;DHT22;275;48.492;9.214;2022-10-03T07:42:45;14.60;49.10
578;DHT22;275;48.492;9.214;2022-10-03T07:45:31;15.00;47.60
578;DHT22;275;48.492;9.214;2022-10-03T07:51:18;15.00;47.60
578;DHT22;275;48.492;9.214;2022-10-03T07:57:17;15.90;45.90
578;DHT22;275;48.492;9.214;2022-10-03T08:00:11;16.00;45.10
578;DHT22;275;48.492;9.214;2022-10-03T08:03:14;15.60;45.90
578;DHT22;275;48.492;9.214;2022-10-03T08:06:08;15.80;45.70
578;DHT22;275;48.492;9.214;2022-10-03T08:14:47;17.10;42.80
578;DHT22;275;48.492;9.214;2022-10-03T08:17:48;16.80;42.60
578;DHT22;275;48.492;9.214;2022-10-03T08:20:42;17.10;41.90
578;DHT22;275;48.492;9.214;2022-10-03T08:23:35;17.40;41.30
578;DHT22;275;48.492;9.214;2022-10-03T08:26:14;17.10;42.30
578;DHT22;275;48.492;9.214;2022-10-03T08:28:55;16.80;42.40
578;DHT22;275;48.492;9.214;2022-10-03T08:38:02;17.10;41.90
578;DHT22;275;48.492;9.214;2022-10-03T08:40:54;17.20;41.80
578;DHT22;275;48.492;9.214;2022-10-03T08:46:52;17.50;41.00
578;DHT22;275;48.492;9.214;2022-10-03T08:50:05;16.70;43.00
578;DHT22;275;48.492;9.214;2022-10-03T08:52:44;17.10;42.10
578;DHT22;275;48.492;9.214;2022-10-03T08:55:45;17.30;41.50
578;DHT22;275;48.492;9.214;2022-10-03T08:58:45;17.10;41.90
578;DHT22;275;48.492;9.214;2022-10-03T09:01:26;17.00;42.30
578;DHT22;275;48.492;9.214;2022-10-03T09:07:16;17.50;40.70
578;DHT22;275;48.492;9.214;2022-10-03T09:13:16;16.70;42.50
578;DHT22;275;48.492;9.214;2022-10-03T09:19:17;17.90;39.90
578;DHT22;275;48.492;9.214;2022-10-03T09:25:06;21.40;33.30
578;DHT22;275;48.492;9.214;2022-10-03T09:30:58;24.50;28.10
578;DHT22;275;48.492;9.214;2022-10-03T09:46:53;22.60;28.20
578;DHT22;275;48.492;9.214;2022-10-03T09:49:55;22.50;27.90
578;DHT22;275;48.492;9.214;2022-10-03T09:52:46;22.70;27.80
578;DHT22;275;48.492;9.214;2022-10-03T09:55:29;23.30;27.00
578;DHT22;275;48.492;9.214;2022-10-03T09:58:23;24.10;25.90
578;DHT22;275;48.492;9.214;2022-10-03T10:01:11;24.80;24.40
578;DHT22;275;48.492;9.214;2022-10-03T10:06:48;23.10;26.20
578;DHT22;275;48.492;9.214;2022-10-03T10:09:52;22.60;26.90
578;DHT22;275;48.492;9.214;2022-10-03T10:12:58;24.10;25.60
578;DHT22;275;48.492;9.214;2022-10-03T10:16:13;25.60;23.50
578;DHT22;275;48.492;9.214;2022-10-03T10:19:19;25.00;23.80
578;DHT22;275;48.492;9.214;2022-10-03T10:22:17;24.00;25.30
578;DHT22;275;48.492;9.214;2022-10-03T10:25:12;23.30;26.50
578;DHT22;275;48.492;9.214;2022-10-03T10:37:38;21.30;29.50
578;DHT22;275;48.492;9.214;2022-10-03T10:40:33;23.10;27.90
578;DHT22;275;48.492;9.214;2022-10-03T10:43:52;27.80;22.60
578;DHT22;275;48.492;9.214;2022-10-03T10:47:07;30.70;18.30
578;DHT22;275;48.492;9.214;2022-10-03T10:50:14;31.10;17.10
578;DHT22;275;48.492;9.214;2022-10-03T11:06:21;25.10;23.70
578;DHT22;275;48.492;9.214;2022-10-03T11:09:38;22.80;26.70
578;DHT22;275;48.492;9.214;2022-10-03T11:12:49;20.90;29.20
578;DHT22;275;48.492;9.214;2022-10-03T11:16:04;20.30;30.70
578;DHT22;275;48.492;9.214;2022-10-03T11:22:26;21.30;29.50
578;DHT22;275;48.492;9.214;2022-10-03T11:37:06;21.10;26.50
578;DHT22;275;48.492;9.214;2022-10-03T11:39:41;21.00;26.90
578;DHT22;275;48.492;9.214;2022-10-03T11:42:21;20.50;27.00
578;DHT22;275;48.492;9.214;2022-10-03T11:44:55;20.40;28.80
578;DHT22;275;48.492;9.214;2022-10-03T11:47:41;19.40;29.50
578;DHT22;275;48.492;9.214;2022-10-03T11:50:22;18.40;31.00
578;DHT22;275;48.492;9.214;2022-10-03T11:53:11;18.70;29.70
578;DHT22;275;48.492;9.214;2022-10-03T11:55:45;18.90;29.00
578;DHT22;275;48.492;9.214;2022-10-03T11:58:26;19.40;27.20
578;DHT22;275;48.492;9.214;2022-10-03T12:01:06;19.40;28.10
578;DHT22;275;48.492;9.214;2022-10-03T12:03:42;19.40;28.00
578;DHT22;275;48.492;9.214;2022-10-03T12:06:15;19.40;29.20
578;DHT22;275;48.492;9.214;2022-10-03T12:09:14;19.20;29.10
578;DHT22;275;48.492;9.214;2022-10-03T12:11:50;19.60;28.10
578;DHT22;275;48.492;9.214;2022-10-03T12:14:25;19.50;27.90
578;DHT22;275;48.492;9.214;2022-10-03T12:17:03;19.90;27.00
578;DHT22;275;48.492;9.214;2022-10-03T12:19:35;20.40;26.70
578;DHT22;275;48.492;9.214;2022-10-03T12:22:17;21.10;25.30
578;DHT22;275;48.492;9.214;2022-10-03T12:24:49;23.90;21.90
578;DHT22;275;48.492;9.214;2022-10-03T12:27:27;27.60;18.00
578;DHT22;275;48.492;9.214;2022-10-03T12:29:57;30.00;15.50
578;DHT22;275;48.492;9.214;2022-10-03T12:32:30;32.80;13.40
578;DHT22;275;48.492;9.214;2022-10-03T12:35:17;34.20;11.40
578;DHT22;275;48.492;9.214;2022-10-03T12:38:01;34.20;10.30
578;DHT22;275;48.492;9.214;2022-10-03T12:40:33;31.20;12.40
578;DHT22;275;48.492;9.214;2022-10-03T12:43:14;30.60;13.00
578;DHT22;275;48.492;9.214;2022-10-03T12:45:48;27.20;15.00
578;DHT22;275;48.492;9.214;2022-10-03T12:48:32;24.90;19.10
578;DHT22;275;48.492;9.214;2022-10-03T12:51:07;24.30;21.10
578;DHT22;275;48.492;9.214;2022-10-03T12:53:46;22.10;24.00
578;DHT22;275;48.492;9.214;2022-10-03T12:56:20;23.80;22.80
578;DHT22;275;48.492;9.214;2022-10-03T12:59:04;26.60;20.00
578;DHT22;275;48.492;9.214;2022-10-03T13:04:32;26.60;18.70
578;DHT22;275;48.492;9.214;2022-10-03T13:07:16;25.80;19.80
578;DHT22;275;48.492;9.214;2022-10-03T13:10:03;26.50;18.70
578;DHT22;275;48.492;9.214;2022-10-03T13:12:39;26.60;18.30
578;DHT22;275;48.492;9.214;2022-10-03T13:15:45;28.50;16.30
578;DHT22;275;48.492;9.214;2022-10-03T13:18:34;29.30;14.60
578;DHT22;275;48.492;9.214;2022-10-03T13:21:08;26.70;17.20
578;DHT22;275;48.492;9.214;2022-10-03T13:23:43;23.80;20.60
578;DHT22;275;48.492;9.214;2022-10-03T13:26:16;23.00;21.50
578;DHT22;275;48.492;9.214;2022-10-03T13:32:16;21.30;24.60
578;DHT22;275;48.492;9.214;2022-10-03T13:35:13;19.80;26.50
578;DHT22;275;48.492;9.214;2022-10-03T13:41:27;20.70;24.50
578;DHT22;275;48.492;9.214;2022-10-03T13:43:58;20.80;25.10
578;DHT22;275;48.492;9.214;2022-10-03T13:46:30;21.90;23.40
578;DHT22;275;48.492;9.214;2022-10-03T13:49:02;23.30;22.20
578;DHT22;275;48.492;9.214;2022-10-03T13:51:42;24.10;21.60
578;DHT22;275;48.492;9.214;2022-10-03T13:54:15;26.20;19.60
578;DHT22;275;48.492;9.214;2022-10-03T13:56:51;26.90;18.80
578;DHT22;275;48.492;9.214;2022-10-03T13:59:35;27.40;18.30
578;DHT22;275;48.492;9.214;2022-10-03T14:02:37;25.20;20.30
578;DHT22;275;48.492;9.214;2022-10-03T14:05:31;23.20;22.50
578;DHT22;275;48.492;9.214;2022-10-03T14:08:08;22.70;22.80
578;DHT22;275;48.492;9.214;2022-10-03T14:10:56;21.20;25.10
578;DHT22;275;48.492;9.214;2022-10-03T14:13:31;20.40;25.60
578;DHT22;275;48.492;9.214;2022-10-03T14:16:11;21.00;24.90
578;DHT22;275;48.492;9.214;2022-10-03T14:18:45;21.50;24.00
578;DHT22;275;48.492;9.214;2022-10-03T14:21:50;20.30;25.20
578;DHT22;275;48.492;9.214;2022-10-03T14:27:30;19.20;25.80
578;DHT22;275;48.492;9.214;2022-10-03T14:30:03;19.80;24.90
578;DHT22;275;48.492;9.214;2022-10-03T14:32:35;18.90;27.40
578;DHT22;275;48.492;9.214;2022-10-03T14:35:11;18.80;27.60
578;DHT22;275;48.492;9.214;2022-10-03T14:37:45;18.70;28.00
578;DHT22;275;48.492;9.214;2022-10-03T14:40:20;18.60;27.90
578;DHT22;275;48.492;9.214;2022-10-03T14:43:03;18.60;28.10
578;DHT22;275;48.492;9.214;2022-10-03T14:45:36;18.40;28.50
578;DHT22;275;48.492;9.214;2022-10-03T14:48:06;18.80;28.30
578;DHT22;275;48.492;9.214;2022-10-03T14:50:39;19.30;28.00
578;DHT22;275;48.492;9.214;2022-10-03T14:53:14;19.20;28.40
578;DHT22;275;48.492;9.214;2022-10-03T14:55:45;18.40;30.00
578;DHT22;275;48.492;9.214;2022-10-03T14:58:21;17.90;31.50
578;DHT22;275;48.492;9.214;2022-10-03T15:00:59;17.60;32.40
578;DHT22;275;48.492;9.214;2022-10-03T15:03:29;17.80;32.50
578;DHT22;275;48.492;9.214;2022-10-03T15:06:01;18.00;32.00
578;DHT22;275;48.492;9.214;2022-10-03T15:08:34;18.00;31.70
578;DHT22;275;48.492;9.214;2022-10-03T15:11:04;18.30;30.80
578;DHT22;275;48.492;9.214;2022-10-03T15:13:37;18.00;31.40
578;DHT22;275;48.492;9.214;2022-10-03T15:16:07;18.00;31.60
578;DHT22;275;48.492;9.214;2022-10-03T15:18:36;18.00;31.60
578;DHT22;275;48.492;9.214;2022-10-03T15:21:04;17.70;32.10
578;DHT22;275;48.492;9.214;2022-10-03T15:23:39;17.70;32.10
578;DHT22;275;48.492;9.214;2022-10-03T15:26:13;17.20;33.00
578;DHT22;275;48.492;9.214;2022-10-03T15:28:45;17.60;32.50
578;DHT22;275;48.492;9.214;2022-10-03T15:31:20;17.60;32.30
578;DHT22;275;48.492;9.214;2022-10-03T15:33:53;18.00;31.00
578;DHT22;275;48.492;9.214;2022-10-03T15:36:24;18.10;30.80
578;DHT22;275;48.492;9.214;2022-10-03T15:38:56;18.20;30.40
578;DHT22;275;48.492;9.214;2022-10-03T15:41:27;18.30;30.00
578;DHT22;275;48.492;9.214;2022-10-03T15:43:58;18.00;30.90
578;DHT22;275;48.492;9.214;2022-10-03T15:46:32;17.40;32.20
578;DHT22;275;48.492;9.214;2022-10-03T15:49:03;17.30;32.20
578;DHT22;275;48.492;9.214;2022-10-03T15:51:34;17.40;32.00
578;DHT22;275;48.492;9.214;2022-10-03T15:54:06;17.50;31.30
578;DHT22;275;48.492;9.214;2022-10-03T15:56:38;18.00;30.20
578;DHT22;275;48.492;9.214;2022-10-03T15:59:07;17.40;31.30
578;DHT22;275;48.492;9.214;2022-10-03T16:01:37;17.80;30.50
578;DHT22;275;48.492;9.214;2022-10-03T16:04:06;18.20;29.40
578;DHT22;275;48.492;9.214;2022-10-03T16:06:42;18.10;29.50
578;DHT22;275;48.492;9.214;2022-10-03T16:09:18;18.00;29.80
578;DHT22;275;48.492;9.214;2022-10-03T16:11:58;17.80;30.30
578;DHT22;275;48.492;9.214;2022-10-03T16:14:29;17.80;30.30
578;DHT22;275;48.492;9.214;2022-10-03T16:17:02;18.10;29.70
578;DHT22;275;48.492;9.214;2022-10-03T16:19:37;18.40;29.10
578;DHT22;275;48.492;9.214;2022-10-03T16:22:20;17.80;30.10
578;DHT22;275;48.492;9.214;2022-10-03T16:24:58;17.40;30.80
578;DHT22;275;48.492;9.214;2022-10-03T16:27:28;17.70;30.50
578;DHT22;275;48.492;9.214;2022-10-03T16:30:18;17.80;30.50
578;DHT22;275;48.492;9.214;2022-10-03T16:32:50;17.80;30.70
578;DHT22;275;48.492;9.214;2022-10-03T16:35:32;17.70;30.80
578;DHT22;275;48.492;9.214;2022-10-03T16:38:02;17.80;30.50
578;DHT22;275;48.492;9.214;2022-10-03T16:40:32;18.00;30.20
578;DHT22;275;48.492;9.214;2022-10-03T16:43:03;17.90;30.80
578;DHT22;275;48.492;9.214;2022-10-03T16:45:38;17.40;31.60
578;DHT22;275;48.492;9.214;2022-10-03T16:48:23;17.10;31.90
578;DHT22;275;48.492;9.214;2022-10-03T16:51:16;16.80;34.00
578;DHT22;275;48.492;9.214;2022-10-03T16:53:45;16.60;34.20
578;DHT22;275;48.492;9.214;2022-10-03T16:56:15;16.40;35.60
578;DHT22;275;48.492;9.214;2022-10-03T16:58:47;16.40;35.80
578;DHT22;275;48.492;9.214;2022-10-03T17:01:26;16.30;36.10
578;DHT22;275;48.492;9.214;2022-10-03T17:04:07;16.50;35.70
578;DHT22;275;48.492;9.214;2022-10-03T17:06:38;16.80;35.10
578;DHT22;275;48.492;9.214;2022-10-03T17:09:07;16.60;35.40
578;DHT22;275;48.492;9.214;2022-10-03T17:11:46;16.80;35.00
578;DHT22;275;48.492;9.214;2022-10-03T17:14:17;17.30;33.90
578;DHT22;275;48.492;9.214;2022-10-03T17:16:49;17.20;33.80
578;DHT22;275;48.492;9.214;2022-10-03T17:19:26;17.30;33.70
578;DHT22;275;48.492;9.214;2022-10-03T17:22:01;17.20;33.80
578;DHT22;275;48.492;9.214;2022-10-03T17:24:37;17.10;34.70
578;DHT22;275;48.492;9.214;2022-10-03T17:27:14;16.80;35.10
578;DHT22;275;48.492;9.214;2022-10-03T17:29:46;16.60;35.70
578;DHT22;275;48.492;9.214;2022-10-03T17:32:20;16.30;36.50
578;DHT22;275;48.492;9.214;2022-10-03T17:34:55;15.60;38.50
578;DHT22;275;48.492;9.214;2022-10-03T17:40:50;15.60;39.80
578;DHT22;275;48.492;9.214;2022-10-03T17:43:28;16.00;39.10
578;DHT22;275;48.492;9.214;2022-10-03T17:46:03;16.00;38.90
578;DHT22;275;48.492;9.214;2022-10-03T17:48:36;15.80;39.40
578;DHT22;275;48.492;9.214;2022-10-03T17:51:27;15.80;39.70
578;DHT22;275;48.492;9.214;2022-10-03T17:53:57;15.80;39.50
578;DHT22;275;48.492;9.214;2022-10-03T17:56:26;15.70;40.00
578;DHT22;275;48.492;9.214;2022-10-03T17:59:00;15.80;39.80
578;DHT22;275;48.492;9.214;2022-10-03T18:01:34;15.50;40.40
578;DHT22;275;48.492;9.214;2022-10-03T18:04:04;15.70;39.90
578;DHT22;275;48.492;9.214;2022-10-03T18:06:49;15.50;40.70
578;DHT22;275;48.492;9.214;2022-10-03T18:09:30;15.40;40.80
578;DHT22;275;48.492;9.214;2022-10-03T18:12:07;15.10;42.00
578;DHT22;275;48.492;9.214;2022-10-03T18:14:49;14.40;43.90
578;DHT22;275;48.492;9.214;2022-10-03T18:17:29;14.10;45.10
578;DHT22;275;48.492;9.214;2022-10-03T18:20:09;14.20;44.80
578;DHT22;275;48.492;9.214;2022-10-03T18:22:46;14.60;43.80
578;DHT22;275;48.492;9.214;2022-10-03T18:25:19;14.90;43.30
578;DHT22;275;48.492;9.214;2022-10-03T18:28:13;14.80;42.90
578;DHT22;275;48.492;9.214;2022-10-03T18:30:45;14.60;43.20
578;DHT22;275;48.492;9.214;2022-10-03T18:33:18;14.80;42.40
578;DHT22;275;48.492;9.214;2022-10-03T18:35:47;14.90;42.10
578;DHT22;275;48.492;9.214;2022-10-03T18:38:20;14.60;42.90
578;DHT22;275;48.492;9.214;2022-10-03T18:40:52;14.30;43.40
578;DHT22;275;48.492;9.214;2022-10-03T18:43:35;13.60;45.40
578;DHT22;275;48.492;9.214;2022-10-03T18:46:13;13.40;46.60
578;DHT22;275;48.492;9.214;2022-10-03T18:49:01;13.20;47.40
578;DHT22;275;48.492;9.214;2022-10-03T18:51:34;13.30;47.20
578;DHT22;275;48.492;9.214;2022-10-03T18:54:13;13.60;45.70
578;DHT22;275;48.492;9.214;2022-10-03T18:56:46;13.70;45.60
578;DHT22;275;48.492;9.214;2022-10-03T18:59:28;14.30;43.70
578;DHT22;275;48.492;9.214;2022-10-03T19:01:59;14.10;43.90
578;DHT22;275;48.492;9.214;2022-10-03T19:04:35;14.50;42.80
578;DHT22;275;48.492;9.214;2022-10-03T19:07:12;14.80;42.00
578;DHT22;275;48.492;9.214;2022-10-03T19:10:05;14.60;42.30
578;DHT22;275;48.492;9.214;2022-10-03T19:12:39;14.50;42.50
578;DHT22;275;48.492;9.214;2022-10-03T19:15:16;14.70;41.60
578;DHT22;275;48.492;9.214;2022-10-03T19:17:50;14.50;42.10
578;DHT22;275;48.492;9.214;2022-10-03T19:20:25;14.50;42.00
578;DHT22;275;48.492;9.214;2022-10-03T19:23:02;14.40;42.80
578;DHT22;275;48.492;9.214;2022-10-03T19:25:34;14.20;42.70
578;DHT22;275;48.492;9.214;2022-10-03T19:28:06;14.30;42.40
578;DHT22;275;48.492;9.214;2022-10-03T19:30:39;14.20;42.80
578;DHT22;275;48.492;9.214;2022-10-03T19:33:13;14.00;43.30
578;DHT22;275;48.492;9.214;2022-10-03T19:35:45;14.00;43.50
578;DHT22;275;48.492;9.214;2022-10-03T19:38:16;14.10;42.90
578;DHT22;275;48.492;9.214;2022-10-03T19:40:52;13.70;43.90
578;DHT22;275;48.492;9.214;2022-10-03T19:43:34;13.70;44.00
578;DHT22;275;48.492;9.214;2022-10-03T19:46:25;13.80;43.40
578;DHT22;275;48.492;9.214;2022-10-03T19:49:20;13.90;43.20
578;DHT22;275;48.492;9.214;2022-10-03T19:51:48;14.10;42.50
578;DHT22;275;48.492;9.214;2022-10-03T19:54:27;13.90;43.10
578;DHT22;275;48.492;9.214;2022-10-03T19:56:57;13.90;42.80
578;DHT22;275;48.492;9.214;2022-10-03T19:59:37;14.00;43.40
578;DHT22;275;48.492;9.214;2022-10-03T20:02:10;14.00;42.50
578;DHT22;275;48.492;9.214;2022-10-03T20:04:37;14.10;42.20
578;DHT22;275;48.492;9.214;2022-10-03T20:07:10;13.90;42.60
578;DHT22;275;48.492;9.214;2022-10-03T20:09:53;13.90;42.50
578;DHT22;275;48.492;9.214;2022-10-03T20:12:23;13.60;43.50
578;DHT22;275;48.492;9.214;2022-10-03T20:14:51;13.50;43.50
578;DHT22;275;48.492;9.214;2022-10-03T20:17:20;13.70;42.80
578;DHT22;275;48.492;9.214;2022-10-03T20:19:50;13.50;43.50
578;DHT22;275;48.492;9.214;2022-10-03T20:22:21;13.50;43.60
578;DHT22;275;48.492;9.214;2022-10-03T20:24:50;13.40;43.90
578;DHT22;275;48.492;9.214;2022-10-03T20:27:28;13.50;43.50
578;DHT22;275;48.492;9.214;2022-10-03T20:30:04;13.40;43.80
578;DHT22;275;48.492;9.214;2022-10-03T20:32:34;13.40;43.70
578;DHT22;275;48.492;9.214;2022-10-03T20:35:03;13.10;44.50
578;DHT22;275;48.492;9.214;2022-10-03T20:37:40;13.20;44.10
578;DHT22;275;48.492;9.214;2022-10-03T20:40:21;13.50;43.50
578;DHT22;275;48.492;9.214;2022-10-03T20:42:53;13.20;44.00
578;DHT22;275;48.492;9.214;2022-10-03T20:45:24;13.40;43.60
578;DHT22;275;48.492;9.214;2022-10-03T20:47:58;13.30;43.90
578;DHT22;275;48.492;9.214;2022-10-03T20:50:29;13.00;44.70